createdAt,value
2022-09-28T00:02:30.786Z,8.97
2022-09-28T00:05:33.927Z,9.00
2022-09-28T00:08:37.824Z,8.94
2022-09-28T00:11:41.029Z,8.88
2022-09-28T00:14:45.863Z,8.81
2022-09-28T00:17:48.966Z,8.81
2022-09-28T00:21:02.513Z,8.83
2022-09-28T00:24:15.478Z,8.82
2022-09-28T00:27:18.374Z,8.81
2022-09-28T00:30:22.684Z,8.79
2022-09-28T00:33:25.968Z,8.91
2022-09-28T00:36:30.575Z,8.89
2022-09-28T00:39:35.611Z,8.82
2022-09-28T00:42:38.532Z,8.78
2022-09-28T00:45:42.906Z,8.86
2022-09-28T00:48:53.005Z,8.91
2022-09-28T00:51:56.048Z,8.93
2022-09-28T00:55:01.216Z,8.88
2022-09-28T00:58:08.325Z,8.92
2022-09-28T01:01:13.302Z,8.94
2022-09-28T01:04:16.628Z,8.92
2022-09-28T01:07:20.452Z,8.99
2022-09-28T01:10:24.167Z,8.91
2022-09-28T01:13:28.197Z,8.97
2022-09-28T01:16:42.687Z,9.04
2022-09-28T01:20:35.539Z,9.06
2022-09-28T01:24:10.916Z,9.03
2022-09-28T01:27:22.177Z,9.06
2022-09-28T01:30:25.541Z,9.04
2022-09-28T01:33:35.763Z,9.06
2022-09-28T01:36:45.249Z,8.96
2022-09-28T01:39:51.510Z,9.01
2022-09-28T01:43:03.800Z,9.02
2022-09-28T01:46:13.461Z,9.03
2022-09-28T01:49:21.158Z,9.06
2022-09-28T01:52:30.464Z,9.12
2022-09-28T01:55:36.171Z,9.13
2022-09-28T01:58:50.459Z,9.15
2022-09-28T02:01:58.590Z,9.17
2022-09-28T02:05:06.510Z,9.15
2022-09-28T02:08:13.720Z,9.16
2022-09-28T02:11:18.716Z,9.19
2022-09-28T02:14:25.838Z,9.22
2022-09-28T02:17:28.782Z,9.19
2022-09-28T02:20:35.498Z,9.15
2022-09-28T02:23:42.742Z,9.18
2022-09-28T02:26:49.185Z,9.19
2022-09-28T02:29:53.509Z,9.20
2022-09-28T02:33:02.292Z,9.16
2022-09-28T02:36:06.147Z,9.16
2022-09-28T02:39:16.035Z,9.04
2022-09-28T02:42:25.801Z,9.09
2022-09-28T02:45:49.162Z,9.13
2022-09-28T02:49:21.854Z,9.11
2022-09-28T02:52:46.249Z,9.10
2022-09-28T02:56:06.349Z,9.08
2022-09-28T02:59:21.483Z,9.09
2022-09-28T03:02:36.012Z,9.07
2022-09-28T03:05:48.523Z,9.01
2022-09-28T03:09:00.959Z,8.95
2022-09-28T03:12:10.451Z,8.96
2022-09-28T03:15:21.913Z,8.95
2022-09-28T03:18:26.208Z,8.96
2022-09-28T03:21:29.567Z,8.88
2022-09-28T03:24:32.926Z,8.83
2022-09-28T03:27:35.866Z,8.85
2022-09-28T03:30:43.017Z,8.87
2022-09-28T03:33:47.706Z,8.83
2022-09-28T03:36:50.750Z,8.82
2022-09-28T03:39:54.081Z,8.82
2022-09-28T03:42:57.010Z,8.85
2022-09-28T03:46:02.600Z,8.87
2022-09-28T03:49:11.571Z,8.82
2022-09-28T03:52:15.368Z,8.81
2022-09-28T03:55:18.871Z,8.78
2022-09-28T03:58:23.051Z,8.79
2022-09-28T04:01:26.092Z,8.78
2022-09-28T04:04:30.649Z,8.69
2022-09-28T04:07:33.953Z,8.65
2022-09-28T04:10:36.869Z,8.61
2022-09-28T04:13:40.160Z,8.65
2022-09-28T04:16:48.222Z,8.68
2022-09-28T04:19:53.472Z,8.66
2022-09-28T04:23:07.378Z,8.67
2022-09-28T04:26:18.691Z,8.69
2022-09-28T04:29:20.992Z,8.69
2022-09-28T04:32:33.832Z,8.69
2022-09-28T04:35:38.486Z,8.72
2022-09-28T04:38:52.836Z,8.64
2022-09-28T04:41:57.314Z,8.62
2022-09-28T04:45:00.947Z,8.66
2022-09-28T04:48:08.351Z,8.67
2022-09-28T04:51:33.683Z,8.74
2022-09-28T04:54:36.739Z,8.71
2022-09-28T04:57:39.822Z,8.71
2022-09-28T05:00:43.106Z,8.69
2022-09-28T05:04:06.000Z,8.66
2022-09-28T05:07:31.191Z,8.69
2022-09-28T05:10:36.532Z,8.69
2022-09-28T05:13:43.703Z,8.69
2022-09-28T05:16:47.639Z,8.67
2022-09-28T05:20:03.847Z,8.66
2022-09-28T05:23:11.914Z,8.71
2022-09-28T05:26:15.839Z,8.73
2022-09-28T05:29:19.002Z,8.77
2022-09-28T05:32:22.401Z,8.74
2022-09-28T05:35:34.096Z,8.81
2022-09-28T05:38:39.451Z,8.75
2022-09-28T05:41:42.409Z,8.77
2022-09-28T05:44:48.363Z,8.79
2022-09-28T05:47:51.396Z,8.75
2022-09-28T05:50:58.596Z,8.81
2022-09-28T05:54:06.111Z,8.84
2022-09-28T05:57:11.042Z,8.89
2022-09-28T06:00:14.638Z,8.90
2022-09-28T06:03:21.775Z,8.94
2022-09-28T06:06:24.842Z,8.97
2022-09-28T06:09:29.155Z,8.90
2022-09-28T06:12:34.622Z,9.02
2022-09-28T06:15:44.797Z,8.98
2022-09-28T06:18:48.410Z,8.98
2022-09-28T06:22:24.260Z,9.05
2022-09-28T06:25:36.269Z,9.03
2022-09-28T06:28:39.347Z,9.03
2022-09-28T06:31:42.718Z,9.03
2022-09-28T06:34:45.941Z,9.10
2022-09-28T06:37:49.355Z,9.16
2022-09-28T06:40:53.997Z,9.21
2022-09-28T06:43:57.113Z,9.26
2022-09-28T06:47:18.542Z,9.24
2022-09-28T06:50:40.464Z,9.18
2022-09-28T06:54:01.535Z,9.32
2022-09-28T06:57:16.627Z,9.40
2022-09-28T07:00:20.263Z,9.42
2022-09-28T07:03:24.315Z,9.37
2022-09-28T07:06:55.949Z,9.46
2022-09-28T07:10:32.041Z,9.40
2022-09-28T07:13:50.444Z,9.53
2022-09-28T07:17:12.173Z,9.62
2022-09-28T07:20:19.408Z,9.70
2022-09-28T07:23:24.861Z,9.72
2022-09-28T07:26:46.272Z,9.86
2022-09-28T07:29:59.818Z,9.82
2022-09-28T07:33:17.853Z,9.91
2022-09-28T07:36:31.952Z,9.98
2022-09-28T07:39:55.140Z,10.07
2022-09-28T07:43:05.538Z,10.20
2022-09-28T07:46:11.805Z,10.38
2022-09-28T07:49:19.291Z,10.56
2022-09-28T07:52:43.129Z,10.59
2022-09-28T07:56:05.684Z,10.65
2022-09-28T07:59:15.490Z,10.58
2022-09-28T08:02:39.447Z,10.76
2022-09-28T08:05:42.912Z,10.84
2022-09-28T08:08:46.546Z,10.88
2022-09-28T08:11:52.020Z,11.05
2022-09-28T08:15:17.183Z,11.24
2022-09-28T08:18:29.651Z,11.24
2022-09-28T08:21:46.730Z,11.33
2022-09-28T08:24:50.589Z,11.42
2022-09-28T08:27:53.794Z,11.42
2022-09-28T08:31:01.659Z,11.53
2022-09-28T08:34:09.015Z,11.49
2022-09-28T08:37:33.785Z,11.48
2022-09-28T08:41:09.747Z,11.42
2022-09-28T08:44:40.607Z,11.29
2022-09-28T08:48:10.511Z,11.24
2022-09-28T08:51:52.375Z,11.27
2022-09-28T08:55:09.663Z,11.30
2022-09-28T08:58:21.726Z,11.38
2022-09-28T09:01:45.024Z,11.41
2022-09-28T09:04:52.620Z,11.52
2022-09-28T09:08:16.990Z,11.60
2022-09-28T09:11:51.065Z,11.71
2022-09-28T09:15:19.311Z,11.52
2022-09-28T09:18:33.900Z,11.68
2022-09-28T09:21:43.847Z,11.76
2022-09-28T09:24:53.299Z,11.74
2022-09-28T09:28:28.225Z,11.71
2022-09-28T09:31:45.776Z,12.04
2022-09-28T09:35:17.723Z,12.27
2022-09-28T09:38:58.055Z,12.62
2022-09-28T09:42:26.751Z,12.82
2022-09-28T09:46:07.696Z,12.80
2022-09-28T09:49:29.596Z,12.78
2022-09-28T09:52:44.396Z,12.91
2022-09-28T09:55:54.734Z,13.13
2022-09-28T09:59:10.676Z,13.58
2022-09-28T10:02:34.019Z,13.67
2022-09-28T10:05:48.320Z,14.01
2022-09-28T10:08:59.741Z,13.84
2022-09-28T10:12:03.989Z,13.77
2022-09-28T10:15:14.985Z,13.52
2022-09-28T10:18:28.130Z,13.43
2022-09-28T10:21:51.727Z,13.45
2022-09-28T10:25:02.290Z,13.58
2022-09-28T10:28:07.139Z,13.93
2022-09-28T10:31:38.556Z,13.91
2022-09-28T10:34:50.250Z,14.17
2022-09-28T10:38:04.396Z,14.23
2022-09-28T10:41:17.143Z,14.20
2022-09-28T10:44:36.246Z,14.07
2022-09-28T10:47:56.036Z,13.98
2022-09-28T10:51:05.587Z,14.35
2022-09-28T10:54:16.790Z,14.57
2022-09-28T10:57:30.011Z,14.89
2022-09-28T11:00:42.959Z,14.71
2022-09-28T11:03:57.959Z,14.44
2022-09-28T11:07:02.961Z,14.48
2022-09-28T11:10:07.249Z,13.87
2022-09-28T11:13:11.315Z,13.81
2022-09-28T11:16:26.217Z,13.53
2022-09-28T11:19:31.748Z,13.29
2022-09-28T11:22:41.816Z,13.09
2022-09-28T11:26:02.252Z,13.16
2022-09-28T11:29:07.513Z,13.14
2022-09-28T11:32:40.920Z,13.39
2022-09-28T11:36:20.413Z,13.68
2022-09-28T11:39:33.563Z,13.81
2022-09-28T11:42:54.446Z,13.66
2022-09-28T11:46:04.816Z,13.65
2022-09-28T11:49:24.531Z,13.54
2022-09-28T11:52:35.163Z,13.41
2022-09-28T11:55:46.159Z,13.25
2022-09-28T11:58:53.321Z,12.99
2022-09-28T12:02:12.712Z,12.85
2022-09-28T12:05:27.812Z,12.90
2022-09-28T12:08:37.339Z,12.80
2022-09-28T12:11:44.775Z,12.87
2022-09-28T12:15:05.314Z,13.00
2022-09-28T12:18:14.758Z,13.09
2022-09-28T12:21:38.440Z,13.15
2022-09-28T12:24:47.528Z,13.15
2022-09-28T12:27:55.193Z,13.12
2022-09-28T12:31:03.506Z,12.99
2022-09-28T12:34:06.903Z,12.96
2022-09-28T12:37:28.066Z,12.97
2022-09-28T12:40:39.653Z,13.02
2022-09-28T12:44:06.615Z,12.99
2022-09-28T12:47:30.417Z,13.01
2022-09-28T12:50:45.562Z,13.08
2022-09-28T12:54:11.994Z,12.98
2022-09-28T12:57:37.215Z,12.75
2022-09-28T13:00:51.138Z,12.76
2022-09-28T13:04:45.524Z,12.80
2022-09-28T13:07:58.935Z,12.81
2022-09-28T13:11:10.533Z,12.86
2022-09-28T13:14:41.837Z,12.69
2022-09-28T13:18:02.589Z,12.66
2022-09-28T13:21:19.155Z,12.73
2022-09-28T13:24:32.867Z,12.55
2022-09-28T13:27:42.327Z,12.62
2022-09-28T13:30:47.742Z,12.75
2022-09-28T13:33:52.587Z,12.73
2022-09-28T13:37:24.362Z,12.69
2022-09-28T13:41:12.772Z,13.04
2022-09-28T13:44:54.348Z,13.23
2022-09-28T13:48:13.482Z,13.24
2022-09-28T13:51:45.075Z,13.25
2022-09-28T13:55:04.635Z,13.13
2022-09-28T13:58:22.406Z,13.59
2022-09-28T14:01:31.763Z,13.70
2022-09-28T14:04:56.671Z,13.63
2022-09-28T14:08:26.819Z,13.83
2022-09-28T14:11:47.373Z,13.72
2022-09-28T14:14:51.909Z,13.75
2022-09-28T14:18:05.340Z,13.52
2022-09-28T14:21:48.209Z,13.49
2022-09-28T14:25:08.296Z,14.03
2022-09-28T14:28:33.940Z,14.51
2022-09-28T14:31:43.428Z,14.67
2022-09-28T14:34:49.346Z,14.92
2022-09-28T14:38:18.330Z,15.15
2022-09-28T14:41:33.542Z,15.28
2022-09-28T14:45:35.937Z,14.92
2022-09-28T14:48:48.827Z,15.29
2022-09-28T14:52:03.931Z,15.54
2022-09-28T14:55:15.410Z,14.99
2022-09-28T14:58:23.385Z,15.26
2022-09-28T15:01:27.840Z,15.51
2022-09-28T15:04:32.492Z,15.49
2022-09-28T15:07:47.602Z,15.31
2022-09-28T15:10:52.533Z,14.87
2022-09-28T15:14:07.534Z,14.30
2022-09-28T15:17:14.886Z,14.26
2022-09-28T15:20:25.524Z,14.26
2022-09-28T15:23:36.356Z,14.04
2022-09-28T15:26:39.248Z,13.98
2022-09-28T15:29:42.326Z,13.62
2022-09-28T15:32:46.571Z,13.49
2022-09-28T15:35:56.360Z,13.56
2022-09-28T15:39:03.311Z,13.49
2022-09-28T15:42:07.470Z,13.38
2022-09-28T15:45:30.710Z,13.28
2022-09-28T15:48:41.582Z,13.12
2022-09-28T15:51:52.243Z,13.14
2022-09-28T15:54:56.307Z,13.03
2022-09-28T15:58:15.680Z,13.05
2022-09-28T16:01:28.464Z,12.86
2022-09-28T16:04:40.487Z,12.63
2022-09-28T16:07:56.209Z,12.68
2022-09-28T16:11:12.050Z,12.61
2022-09-28T16:14:20.980Z,12.52
2022-09-28T16:17:32.333Z,12.29
2022-09-28T16:20:38.635Z,12.33
2022-09-28T16:23:42.338Z,12.14
2022-09-28T16:26:45.454Z,12.10
2022-09-28T16:30:13.867Z,11.67
2022-09-28T16:33:30.385Z,11.85
2022-09-28T16:36:46.184Z,11.70
2022-09-28T16:39:49.130Z,11.83
2022-09-28T16:42:56.140Z,11.78
2022-09-28T16:46:02.004Z,11.74
2022-09-28T16:49:07.450Z,11.67
2022-09-28T16:52:13.416Z,11.56
2022-09-28T16:55:38.827Z,11.49
2022-09-28T16:58:39.028Z,11.42
2022-09-28T17:01:43.778Z,11.45
2022-09-28T17:04:49.578Z,11.32
2022-09-28T17:08:03.800Z,11.19
2022-09-28T17:11:15.837Z,11.10
2022-09-28T17:14:23.367Z,11.04
2022-09-28T17:17:29.782Z,10.98
2022-09-28T17:20:35.453Z,10.90
2022-09-28T17:23:39.849Z,10.93
2022-09-28T17:26:44.401Z,10.87
2022-09-28T17:30:16.585Z,10.97
2022-09-28T17:33:19.781Z,10.88
2022-09-28T17:36:27.318Z,10.87
2022-09-28T17:39:32.108Z,10.85
2022-09-28T17:42:37.575Z,10.85
2022-09-28T17:45:41.249Z,10.79
2022-09-28T17:48:46.658Z,10.79
2022-09-28T17:51:50.375Z,10.79
2022-09-28T17:54:54.652Z,10.72
2022-09-28T17:57:58.162Z,10.71
2022-09-28T18:01:01.100Z,10.73
2022-09-28T18:04:08.082Z,10.69
2022-09-28T18:07:11.337Z,10.67
2022-09-28T18:10:21.266Z,10.61
2022-09-28T18:13:26.504Z,10.48
2022-09-28T18:16:30.319Z,10.48
2022-09-28T18:19:33.695Z,10.47
2022-09-28T18:22:37.775Z,10.54
2022-09-28T18:25:43.490Z,10.45
2022-09-28T18:28:47.564Z,10.43
2022-09-28T18:31:50.790Z,10.41
2022-09-28T18:34:54.060Z,10.40
2022-09-28T18:37:57.203Z,10.37
2022-09-28T18:41:10.066Z,10.44
2022-09-28T18:44:13.420Z,10.41
2022-09-28T18:47:17.485Z,10.29
2022-09-28T18:50:20.716Z,10.27
2022-09-28T18:53:23.841Z,10.32
2022-09-28T18:56:28.270Z,10.34
2022-09-28T18:59:31.919Z,10.26
2022-09-28T19:02:35.338Z,10.23
2022-09-28T19:05:42.922Z,10.16
2022-09-28T19:08:55.430Z,10.15
2022-09-28T19:12:00.151Z,10.14
2022-09-28T19:15:03.321Z,10.11
2022-09-28T19:18:08.751Z,10.03
2022-09-28T19:21:14.251Z,10.00
2022-09-28T19:24:19.750Z,9.95
2022-09-28T19:27:24.009Z,9.90
2022-09-28T19:30:31.610Z,9.83
2022-09-28T19:33:34.554Z,9.77
2022-09-28T19:36:37.653Z,9.82
2022-09-28T19:39:40.582Z,9.82
2022-09-28T19:42:44.822Z,9.77
2022-09-28T19:45:51.987Z,9.76
2022-09-28T19:48:56.500Z,9.66
2022-09-28T19:52:15.687Z,9.74
2022-09-28T19:55:21.204Z,9.81
2022-09-28T19:58:30.587Z,9.68
2022-09-28T20:01:36.785Z,9.65
2022-09-28T20:04:39.761Z,9.61
2022-09-28T20:07:42.858Z,9.44
2022-09-28T20:10:52.262Z,9.34
2022-09-28T20:13:56.765Z,9.25
2022-09-28T20:16:59.679Z,9.21
2022-09-28T20:20:03.215Z,9.10
2022-09-28T20:23:06.402Z,9.10
2022-09-28T20:26:10.424Z,9.01
2022-09-28T20:29:14.843Z,9.06
2022-09-28T20:32:18.012Z,9.00
2022-09-28T20:35:32.379Z,8.92
2022-09-28T20:38:38.245Z,8.84
2022-09-28T20:41:41.280Z,8.79
2022-09-28T20:44:45.955Z,8.75
2022-09-28T20:47:48.891Z,8.76
2022-09-28T20:51:00.573Z,8.92
2022-09-28T20:54:03.602Z,8.98
2022-09-28T20:57:17.184Z,9.09
2022-09-28T21:00:21.462Z,9.19
2022-09-28T21:03:24.786Z,9.27
2022-09-28T21:06:30.065Z,9.32
2022-09-28T21:09:33.049Z,9.37
2022-09-28T21:12:36.879Z,9.40
2022-09-28T21:15:41.200Z,9.35
2022-09-28T21:18:44.412Z,9.38
2022-09-28T21:21:47.528Z,9.39
2022-09-28T21:24:50.453Z,9.41
2022-09-28T21:27:53.511Z,9.40
2022-09-28T21:30:58.083Z,9.43
2022-09-28T21:34:01.148Z,9.45
2022-09-28T21:37:04.105Z,9.39
2022-09-28T21:40:09.783Z,9.43
2022-09-28T21:43:13.453Z,9.36
2022-09-28T21:46:18.402Z,9.38
2022-09-28T21:49:21.433Z,9.38
2022-09-28T21:52:24.462Z,9.37
2022-09-28T21:55:27.473Z,9.40
2022-09-28T21:58:33.595Z,9.34
2022-09-28T22:01:38.054Z,9.38
2022-09-28T22:04:41.014Z,9.44
2022-09-28T22:07:44.588Z,9.44
2022-09-28T22:11:00.007Z,9.48
2022-09-28T22:14:02.958Z,9.52
2022-09-28T22:17:07.637Z,9.53
2022-09-28T22:20:11.039Z,9.53
2022-09-28T22:23:14.003Z,9.50
2022-09-28T22:26:20.092Z,9.55
2022-09-28T22:29:23.893Z,9.55
2022-09-28T22:32:28.463Z,9.54
2022-09-28T22:35:31.555Z,9.56
2022-09-28T22:38:37.498Z,9.54
2022-09-28T22:41:40.483Z,9.57
2022-09-28T22:44:43.415Z,9.56
2022-09-28T22:47:47.661Z,9.49
2022-09-28T22:50:51.289Z,9.55
2022-09-28T22:53:54.822Z,9.48
2022-09-28T22:56:57.911Z,9.47
2022-09-28T23:00:02.095Z,9.43
2022-09-28T23:03:06.698Z,9.41
2022-09-28T23:06:11.825Z,9.32
2022-09-28T23:09:15.313Z,9.32
2022-09-28T23:12:18.355Z,9.24
2022-09-28T23:15:21.559Z,9.21
2022-09-28T23:18:27.761Z,9.14
2022-09-28T23:21:31.481Z,9.15
2022-09-28T23:24:34.452Z,9.12
2022-09-28T23:27:37.615Z,9.03
2022-09-28T23:30:40.987Z,9.03
2022-09-28T23:33:45.680Z,9.04
2022-09-28T23:36:48.724Z,9.05
2022-09-28T23:39:51.920Z,8.92
2022-09-28T23:42:54.897Z,8.92
2022-09-28T23:45:57.828Z,8.86
2022-09-28T23:49:02.083Z,8.76
2022-09-28T23:52:05.262Z,8.63
2022-09-28T23:55:09.231Z,8.73
2022-09-28T23:58:12.735Z,8.76
